Time;durP1;ratioP1;P1;durP2;ratioP2;P2;SDS_P1;SDS_P2;PMS_P1;PMS_P2;Temp;Humidity;BMP_temperature;BMP_pressure;BME280_temperature;BME280_humidity;BME280_pressure;Samples;Min_cycle;Max_cycle;Signal;HPM_P1;HPM_P2
2021/10/19 00:01:43;;;;;;;11.35;9.95;;;;;;;17.00;45.55;96445.13;5103321;28;20081;-72
2021/10/19 00:04:08;;;;;;;14.02;10.45;;;;;;;17.00;45.65;96439.72;5103408;28;20119;-72
2021/10/19 00:06:34;;;;;;;13.68;9.75;;;;;;;16.99;45.60;96446.19;5103241;28;20035;-72
2021/10/19 00:08:59;;;;;;;12.73;10.55;;;;;;;17.00;45.45;96447.84;5086469;28;20032;-72
2021/10/19 00:11:24;;;;;;;10.98;9.70;;;;;;;17.00;45.64;96448.69;5077915;28;20041;-72
2021/10/19 00:13:50;;;;;;;13.32;10.35;;;;;;;17.01;45.30;96444.09;5007923;28;20029;-72
2021/10/19 00:16:15;;;;;;;12.68;10.50;;;;;;;17.01;45.44;96447.66;5007578;28;20018;-72
2021/10/19 00:18:41;;;;;;;13.73;10.63;;;;;;;17.00;45.06;96455.97;5006869;28;20029;-72
2021/10/19 00:21:06;;;;;;;12.50;9.88;;;;;;;17.00;45.19;96450.56;5006789;28;20037;-72
2021/10/19 00:23:31;;;;;;;12.73;10.38;;;;;;;16.99;45.26;96448.88;5005975;28;20042;-73
2021/10/19 00:25:57;;;;;;;12.10;10.68;;;;;;;16.99;45.41;96455.13;4990380;28;20519;-73
2021/10/19 00:28:22;;;;;;;12.55;10.60;;;;;;;16.99;44.99;96451.59;5006259;28;20022;-73
2021/10/19 00:30:48;;;;;;;11.40;10.20;;;;;;;16.98;45.18;96448.03;5006795;28;20034;-72
2021/10/19 00:33:13;;;;;;;12.63;10.80;;;;;;;16.98;45.31;96452.63;5005817;28;20018;-73
2021/10/19 00:35:39;;;;;;;12.90;10.60;;;;;;;16.98;45.28;96448.03;5005862;28;20025;-72
2021/10/19 00:38:04;;;;;;;13.30;10.50;;;;;;;16.97;45.09;96445.53;5006260;28;20029;-73
2021/10/19 00:40:31;;;;;;;13.02;10.90;;;;;;;16.98;44.97;96452.63;4988371;28;20025;-73
2021/10/19 00:42:56;;;;;;;13.82;10.55;;;;;;;16.98;45.17;96447.19;5006443;28;20033;-73
2021/10/19 00:45:22;;;;;;;14.30;10.98;;;;;;;16.99;44.86;96454.31;4988078;28;20026;-72
2021/10/19 00:47:50;;;;;;;13.70;10.30;;;;;;;16.99;44.82;96459.72;5006359;28;20026;-72
2021/10/19 00:50:16;;;;;;;13.20;10.80;;;;;;;16.98;44.66;96458.03;4988695;28;20018;-72
2021/10/19 00:52:41;;;;;;;14.05;10.60;;;;;;;16.98;44.87;96458.03;4989632;28;20054;-72
2021/10/19 00:55:08;;;;;;;12.55;10.32;;;;;;;16.96;44.66;96457.41;5005673;28;20518;-73
2021/10/19 00:57:33;;;;;;;12.98;10.90;;;;;;;16.98;44.72;96458.03;5004853;28;20029;-72
2021/10/19 00:59:58;;;;;;;11.63;10.20;;;;;;;16.97;44.47;96456.38;5006193;28;20403;-72
2021/10/19 01:02:24;;;;;;;12.95;10.40;;;;;;;16.97;44.67;96451.78;5004299;28;20030;-72
2021/10/19 01:04:49;;;;;;;12.82;10.35;;;;;;;16.96;44.76;96449.28;5006150;28;20034;-72
2021/10/19 01:07:15;;;;;;;13.50;11.23;;;;;;;16.93;44.61;96445.06;5004506;28;20113;-72
2021/10/19 01:09:40;;;;;;;13.40;10.73;;;;;;;16.92;44.47;96449.66;4989426;28;20030;-72
2021/10/19 01:12:07;;;;;;;13.63;10.20;;;;;;;16.91;44.70;96456.09;5004680;28;20046;-73
2021/10/19 01:14:32;;;;;;;15.05;11.00;;;;;;;16.92;44.62;96451.53;4988959;28;20452;-73
2021/10/19 01:16:58;;;;;;;14.25;11.48;;;;;;;16.90;44.71;96446.31;4989607;28;20091;-73
2021/10/19 01:19:23;;;;;;;13.50;11.07;;;;;;;16.89;44.56;96443.78;5004164;28;20033;-72
2021/10/19 01:21:57;;;;;;;12.23;10.73;;;;;;;16.89;44.74;96441.91;4989467;28;20038;-72
2021/10/19 01:24:23;;;;;;;16.00;11.23;;;;;;;16.89;44.51;96447.34;4971051;28;20030;-73
2021/10/19 01:26:48;;;;;;;13.95;10.70;;;;;;;16.89;44.62;96443.78;4989186;28;20025;-72
2021/10/19 01:29:14;;;;;;;13.70;10.40;;;;;;;16.88;44.43;96444.81;5004527;28;20022;-72
2021/10/19 01:31:40;;;;;;;13.48;10.07;;;;;;;16.87;44.59;96445.84;4988815;28;20045;-73
2021/10/19 01:34:05;;;;;;;12.68;10.25;;;;;;;16.87;44.36;96446.69;4989040;28;20058;-72
2021/10/19 01:36:31;;;;;;;13.68;10.27;;;;;;;16.87;44.42;96446.69;5005583;28;20427;-72
2021/10/19 01:38:56;;;;;;;16.70;11.25;;;;;;;16.88;44.34;96453.78;5006769;28;20022;-72
2021/10/19 01:41:21;;;;;;;12.60;10.55;;;;;;;16.88;44.22;96447.53;5005376;28;20022;-72
2021/10/19 01:43:47;;;;;;;13.52;10.60;;;;;;;16.89;44.03;96454.63;5005322;28;20040;-72
2021/10/19 01:46:12;;;;;;;13.35;10.73;;;;;;;16.90;44.07;96459.84;5003882;28;20033;-72
2021/10/19 01:48:40;;;;;;;13.65;10.70;;;;;;;16.89;44.24;96460.03;5005166;28;20040;-72
2021/10/19 01:51:05;;;;;;;13.20;11.30;;;;;;;16.89;44.13;96463.59;4988344;28;20449;-72
2021/10/19 01:53:30;;;;;;;12.73;10.32;;;;;;;16.88;44.15;96467.31;5004592;28;20030;-72
2021/10/19 01:55:56;;;;;;;13.23;10.80;;;;;;;16.88;44.07;96470.03;5004914;28;20075;-72
2021/10/19 01:58:23;;;;;;;12.07;10.35;;;;;;;16.87;44.17;96465.66;5004944;28;20033;-72
2021/10/19 02:00:48;;;;;;;12.20;10.23;;;;;;;16.85;44.10;96465.00;4988787;28;20022;-72
2021/10/19 02:03:14;;;;;;;11.75;9.82;;;;;;;16.85;44.20;96462.28;4971008;28;20048;-72
2021/10/19 02:05:39;;;;;;;12.30;10.32;;;;;;;16.85;44.05;96458.72;5004978;28;20399;-72
2021/10/19 02:08:05;;;;;;;12.38;10.40;;;;;;;16.84;44.07;96462.47;5005002;28;20480;-72
2021/10/19 02:10:31;;;;;;;12.48;11.18;;;;;;;16.83;44.17;96460.81;4988371;28;20058;-72
2021/10/19 02:12:56;;;;;;;13.80;10.40;;;;;;;16.83;44.13;96467.03;5004108;28;20567;-73
2021/10/19 02:15:26;;;;;;;12.25;10.45;;;;;;;16.83;43.90;96467.03;5003939;28;20036;-72
2021/10/19 02:17:51;;;;;;;14.75;11.27;;;;;;;16.83;44.11;96460.81;5006035;28;20090;-72
2021/10/19 02:20:17;;;;;;;13.07;10.57;;;;;;;16.81;44.12;96464.53;5003381;28;20469;-72
2021/10/19 02:22:42;;;;;;;13.88;10.40;;;;;;;16.78;44.13;96461.38;5006452;28;20033;-72
2021/10/19 02:25:08;;;;;;;12.98;10.20;;;;;;;16.75;44.18;96459.88;5004417;28;20037;-72
2021/10/19 02:27:33;;;;;;;13.15;10.63;;;;;;;16.73;44.37;96458.41;4988589;28;20030;-72
2021/10/19 02:29:59;;;;;;;11.77;9.93;;;;;;;16.72;44.23;96454.84;5004967;28;20029;-72
2021/10/19 02:32:24;;;;;;;12.02;10.40;;;;;;;16.73;44.32;96461.13;5004160;28;20029;-72
2021/10/19 02:34:49;;;;;;;12.18;9.98;;;;;;;16.71;44.45;96460.47;4987989;28;20029;-72
2021/10/19 02:37:15;;;;;;;12.65;10.40;;;;;;;16.70;44.33;96466.91;4986602;28;20030;-72
2021/10/19 02:39:40;;;;;;;12.68;10.23;;;;;;;16.68;44.37;96470.63;4988257;28;20075;-72
2021/10/19 02:42:06;;;;;;;13.88;10.88;;;;;;;16.71;44.27;96471.28;5002870;28;20018;-72
2021/10/19 02:44:31;;;;;;;11.82;9.30;;;;;;;16.73;44.20;96469.25;5005686;28;20053;-72
2021/10/19 02:46:57;;;;;;;12.05;10.15;;;;;;;16.72;44.26;96481.13;4986625;28;20029;-72
2021/10/19 02:49:22;;;;;;;12.13;9.45;;;;;;;16.72;44.33;96476.50;5004533;28;20052;-72
2021/10/19 02:51:47;;;;;;;11.57;9.48;;;;;;;16.72;44.13;96481.13;5004957;28;20030;-72
2021/10/19 02:54:13;;;;;;;12.23;10.40;;;;;;;16.71;44.32;96480.25;5003506;28;20414;-72
2021/10/19 02:56:38;;;;;;;11.77;9.73;;;;;;;16.71;44.19;96490.25;5005643;28;20030;-72
2021/10/19 02:59:04;;;;;;;13.20;9.77;;;;;;;16.70;44.29;96484.00;5002503;28;20034;-72
2021/10/19 03:01:30;;;;;;;12.00;10.00;;;;;;;16.70;44.27;96492.13;4988216;28;20091;-71
2021/10/19 03:03:55;;;;;;;14.60;10.27;;;;;;;16.70;44.13;96486.72;4985958;28;20120;-72
2021/10/19 03:06:21;;;;;;;15.00;10.15;;;;;;;16.71;44.04;96482.97;5004390;28;20026;-72
2021/10/19 03:08:46;;;;;;;12.23;10.32;;;;;;;16.73;44.05;96488.19;5003083;28;20026;-72
2021/10/19 03:11:11;;;;;;;12.93;9.88;;;;;;;16.73;43.99;96494.47;5003147;28;20057;-72
2021/10/19 03:13:37;;;;;;;13.60;10.30;;;;;;;16.74;44.18;96496.13;5004025;28;20091;-72
2021/10/19 03:16:02;;;;;;;12.25;9.80;;;;;;;16.72;44.01;96494.66;5002729;28;20166;-72
2021/10/19 03:18:28;;;;;;;14.05;10.30;;;;;;;16.73;43.88;96499.88;5004199;28;20034;-72
2021/10/19 03:20:54;;;;;;;12.45;9.93;;;;;;;16.73;43.86;96502.59;5003897;28;20014;-72
2021/10/19 03:23:19;;;;;;;12.80;10.25;;;;;;;16.72;43.91;96495.47;4987571;28;20034;-72
2021/10/19 03:25:45;;;;;;;12.75;9.45;;;;;;;16.70;44.11;96496.72;5002369;28;20030;-72
2021/10/19 03:28:11;;;;;;;12.05;9.88;;;;;;;16.70;43.99;96489.44;4987434;28;20029;-71
2021/10/19 03:30:36;;;;;;;13.05;9.85;;;;;;;16.70;43.78;96494.84;5003243;28;20022;-72
2021/10/19 03:33:03;;;;;;;14.30;10.10;;;;;;;16.70;44.02;96491.28;5003023;28;20033;-72
2021/10/19 03:35:29;;;;;;;13.70;10.48;;;;;;;16.67;43.87;96490.63;4987761;28;20091;-72
2021/10/19 03:37:54;;;;;;;14.40;10.05;;;;;;;16.68;43.71;96497.72;4986102;28;20030;-72
2021/10/19 03:40:20;;;;;;;13.98;10.25;;;;;;;16.67;43.88;96498.75;5003756;28;20034;-72
2021/10/19 03:42:48;;;;;;;13.68;10.13;;;;;;;16.65;44.10;96500.00;5003511;28;20100;-72
2021/10/19 03:45:13;;;;;;;11.60;9.70;;;;;;;16.63;44.03;96499.31;5004705;28;20112;-72
2021/10/19 03:47:39;;;;;;;11.73;9.95;;;;;;;16.62;44.16;96498.47;5003288;28;20026;-72
2021/10/19 03:50:05;;;;;;;14.00;10.23;;;;;;;16.61;44.02;96494.09;5006725;28;20071;-72
2021/10/19 03:52:30;;;;;;;14.05;9.95;;;;;;;16.60;44.11;96497.00;5006663;28;20095;-72
2021/10/19 03:54:56;;;;;;;14.25;11.13;;;;;;;16.58;44.20;96494.47;5005968;28;20022;-72
2021/10/19 03:57:21;;;;;;;13.25;10.65;;;;;;;16.58;44.10;96497.19;5006625;28;20025;-72
2021/10/19 03:59:47;;;;;;;12.82;10.77;;;;;;;16.57;43.87;96490.09;4989063;28;20030;-72
2021/10/19 04:02:12;;;;;;;13.52;10.50;;;;;;;16.58;44.06;96497.19;5006943;28;20030;-72
2021/10/19 04:04:38;;;;;;;13.95;11.13;;;;;;;16.57;44.05;96495.53;5005257;28;20026;-72
2021/10/19 04:07:03;;;;;;;17.63;11.20;;;;;;;16.57;44.09;96503.66;5006872;28;20026;-72
2021/10/19 04:09:29;;;;;;;14.88;10.70;;;;;;;16.58;43.97;96508.03;4989447;28;20037;-72
2021/10/19 04:11:55;;;;;;;13.45;11.13;;;;;;;16.58;43.96;96508.03;5005622;28;20050;-72
2021/10/19 04:14:20;;;;;;;14.48;11.35;;;;;;;16.58;43.90;96512.59;4990148;28;20026;-72
2021/10/19 04:16:46;;;;;;;12.73;10.35;;;;;;;16.57;43.84;96514.47;4989088;28;20030;-72
2021/10/19 04:19:11;;;;;;;12.85;10.38;;;;;;;16.58;43.81;96521.56;4990183;28;20022;-72
2021/10/19 04:21:37;;;;;;;13.40;10.50;;;;;;;16.59;43.76;96520.53;5006628;28;20072;-72
2021/10/19 04:24:02;;;;;;;13.60;10.35;;;;;;;16.60;43.75;96521.38;5006650;28;20486;-72
2021/10/19 04:26:28;;;;;;;13.70;10.23;;;;;;;16.60;43.72;96524.94;5006334;28;20074;-72
2021/10/19 04:28:53;;;;;;;13.35;10.57;;;;;;;16.60;43.51;96522.22;5006368;28;20041;-72
2021/10/19 04:31:19;;;;;;;14.65;10.88;;;;;;;16.61;43.69;96526.59;5005831;28;20083;-72
2021/10/19 04:33:44;;;;;;;14.35;10.52;;;;;;;16.61;43.88;96528.47;5006752;28;20067;-72
2021/10/19 04:36:09;;;;;;;15.73;11.02;;;;;;;16.62;43.77;96530.97;5006532;28;20042;-73
2021/10/19 04:38:35;;;;;;;14.32;11.10;;;;;;;16.62;43.56;96530.16;5006133;28;20494;-72
2021/10/19 04:41:01;;;;;;;13.60;10.60;;;;;;;16.63;43.64;96532.69;5007670;28;20045;-71
2021/10/19 04:43:26;;;;;;;13.68;10.50;;;;;;;16.63;43.43;96538.09;5005970;28;20018;-72
2021/10/19 04:45:53;;;;;;;13.30;10.65;;;;;;;16.63;43.77;96538.09;5008154;28;20045;-72
2021/10/19 04:48:20;;;;;;;14.43;10.43;;;;;;;16.64;43.70;96539.75;5006491;28;20036;-72
2021/10/19 04:50:45;;;;;;;14.43;11.05;;;;;;;16.65;43.67;96541.44;5006789;28;20022;-72
2021/10/19 04:53:11;;;;;;;11.95;10.02;;;;;;;16.65;43.38;96538.72;5006126;28;20029;-74
2021/10/19 04:55:36;;;;;;;15.32;11.23;;;;;;;16.65;43.51;96546.84;5005699;28;20025;-73
2021/10/19 04:58:02;;;;;;;13.70;9.85;;;;;;;16.64;43.54;96550.59;5007556;28;20022;-72
2021/10/19 05:00:27;;;;;;;15.45;10.43;;;;;;;16.61;43.58;96550.97;4987760;28;20585;-72
2021/10/19 05:02:53;;;;;;;14.68;10.55;;;;;;;16.59;43.69;96544.06;5007302;28;20034;-73
2021/10/19 05:05:18;;;;;;;13.15;10.23;;;;;;;16.57;43.61;96552.38;5005798;28;20026;-72
2021/10/19 05:07:44;;;;;;;11.65;10.02;;;;;;;16.56;43.65;96562.38;5005622;28;20488;-72
2021/10/19 05:10:09;;;;;;;15.27;10.98;;;;;;;16.56;43.74;96564.22;5005327;28;20423;-72
2021/10/19 05:12:35;;;;;;;12.48;10.18;;;;;;;16.56;43.73;96564.22;4987812;28;20046;-72
2021/10/19 05:15:00;;;;;;;14.38;10.10;;;;;;;16.56;43.67;96572.34;4989438;28;20034;-72
2021/10/19 05:17:26;;;;;;;15.90;10.60;;;;;;;16.55;43.70;96571.53;4987973;28;20218;-72
2021/10/19 05:19:51;;;;;;;12.95;10.23;;;;;;;16.55;43.61;96579.66;4989561;28;20506;-72
2021/10/19 05:22:17;;;;;;;15.30;10.95;;;;;;;16.59;43.64;96587.41;4987959;28;20568;-72
2021/10/19 05:24:42;;;;;;;16.15;11.02;;;;;;;16.60;43.34;96589.06;5006723;28;20030;-72
2021/10/19 05:27:08;;;;;;;17.40;10.57;;;;;;;16.63;43.44;96592.25;4988306;28;20029;-74
2021/10/19 05:29:33;;;;;;;15.38;10.57;;;;;;;16.64;43.28;96598.50;4988693;28;20033;-73
2021/10/19 05:31:58;;;;;;;14.32;10.80;;;;;;;16.63;43.27;96592.25;5005308;28;20038;-73
2021/10/19 05:34:24;;;;;;;14.25;10.80;;;;;;;16.66;43.56;96604.56;5005525;28;20022;-72
2021/10/19 05:36:50;;;;;;;15.88;10.82;;;;;;;16.66;43.29;96601.88;5006928;28;20060;-72
2021/10/19 05:39:16;;;;;;;14.57;10.68;;;;;;;16.65;43.29;96606.44;4987762;28;20079;-72
2021/10/19 05:41:42;;;;;;;13.63;11.02;;;;;;;16.67;43.13;96609.81;4989287;28;20095;-72
2021/10/19 05:44:07;;;;;;;13.88;10.35;;;;;;;16.68;43.18;96613.38;5004136;28;20075;-72
2021/10/19 05:46:33;;;;;;;13.05;10.63;;;;;;;16.70;43.21;96615.88;5005345;28;20033;-72
2021/10/19 05:48:58;;;;;;;15.50;10.68;;;;;;;16.72;43.08;96614.66;4988186;28;20030;-72
2021/10/19 05:51:24;;;;;;;12.80;10.50;;;;;;;16.73;43.02;96615.50;5005774;28;20057;-72
2021/10/19 05:53:49;;;;;;;14.02;10.68;;;;;;;16.74;42.96;96619.88;5006335;28;20029;-73
2021/10/19 05:56:15;;;;;;;13.57;9.93;;;;;;;16.74;43.05;96618.03;4987396;28;20504;-72
2021/10/19 05:58:40;;;;;;;12.25;10.27;;;;;;;16.75;43.04;96622.41;4988759;28;20026;-72
2021/10/19 06:01:06;;;;;;;12.48;10.68;;;;;;;16.77;43.10;96616.81;5004789;28;20030;-72
2021/10/19 06:03:31;;;;;;;17.15;10.60;;;;;;;16.80;42.91;96624.56;5005143;28;20033;-72
2021/10/19 06:05:56;;;;;;;12.63;10.00;;;;;;;16.80;42.71;96629.97;5003724;28;20022;-72
2021/10/19 06:08:22;;;;;;;12.95;10.63;;;;;;;16.81;43.04;96632.50;5006191;28;20045;-72
2021/10/19 06:10:48;;;;;;;14.95;10.70;;;;;;;16.82;43.19;96638.75;5003689;28;20026;-72
2021/10/19 06:13:13;;;;;;;13.20;10.57;;;;;;;16.87;43.01;96651.75;4986934;28;20042;-72
2021/10/19 06:15:41;;;;;;;13.70;10.88;;;;;;;16.92;42.71;96643.91;5004829;28;20468;-72
2021/10/19 06:18:06;;;;;;;12.18;10.30;;;;;;;16.98;42.66;96648.56;5003672;28;20026;-72
2021/10/19 06:20:32;;;;;;;15.27;10.93;;;;;;;17.01;42.35;96653.59;5004715;28;20033;-72
2021/10/19 06:22:57;;;;;;;15.10;10.80;;;;;;;17.03;41.73;96650.72;4985564;28;20072;-72
2021/10/19 06:25:23;;;;;;;12.65;10.07;;;;;;;17.07;41.68;96643.06;4987141;28;20033;-72
2021/10/19 06:27:48;;;;;;;15.35;11.27;;;;;;;17.12;41.77;96648.78;4985689;28;20033;-73
2021/10/19 06:30:13;;;;;;;13.57;10.77;;;;;;;17.16;41.67;96659.06;5003001;28;20036;-72
2021/10/19 06:32:40;;;;;;;14.50;10.13;;;;;;;17.20;41.37;96650.56;5003964;28;20036;-73
2021/10/19 06:35:08;;;;;;;12.63;10.77;;;;;;;17.26;41.15;96650.63;4986055;28;20560;-72
2021/10/19 06:37:33;;;;;;;14.35;10.23;;;;;;;17.30;41.14;96657.34;4987130;28;20407;-72
2021/10/19 06:39:59;;;;;;;17.52;11.05;;;;;;;17.37;41.25;96660.16;5001881;28;20483;-72
2021/10/19 06:42:24;;;;;;;15.10;10.27;;;;;;;17.44;40.64;96653.97;4986990;28;20026;-72
2021/10/19 06:44:50;;;;;;;15.13;10.40;;;;;;;17.51;40.80;96653.00;4969070;28;20025;-73
2021/10/19 06:47:15;;;;;;;11.73;10.25;;;;;;;17.60;41.04;96661.88;4986675;28;20034;-72
2021/10/19 06:49:41;;;;;;;15.15;10.80;;;;;;;17.68;40.57;96658.19;5002408;28;20033;-72
2021/10/19 06:52:06;;;;;;;12.43;9.63;;;;;;;17.77;40.59;96664.31;5003682;28;20477;-72
2021/10/19 06:54:31;;;;;;;14.15;10.25;;;;;;;17.87;40.37;96664.88;5003981;28;20030;-72
2021/10/19 06:56:57;;;;;;;13.38;9.63;;;;;;;18.00;40.16;96671.44;5001761;28;20392;-72
2021/10/19 06:59:22;;;;;;;12.27;9.73;;;;;;;18.16;39.68;96668.50;4986635;28;20462;-72
2021/10/19 07:01:48;;;;;;;13.60;9.63;;;;;;;18.33;39.90;96679.09;4985495;28;20029;-72
2021/10/19 07:04:13;;;;;;;12.35;9.77;;;;;;;18.45;39.31;96673.13;4986635;28;20045;-72
2021/10/19 07:06:38;;;;;;;14.05;9.50;;;;;;;18.57;38.83;96673.44;5001720;28;20026;-73
2021/10/19 07:09:04;;;;;;;12.85;9.80;;;;;;;18.69;39.03;96676.44;5002569;28;20029;-72
2021/10/19 07:11:30;;;;;;;11.63;9.02;;;;;;;18.80;38.37;96670.44;5003358;28;20025;-73
2021/10/19 07:13:56;;;;;;;10.60;9.25;;;;;;;18.94;38.49;96667.81;4985619;28;20029;-73
2021/10/19 07:16:21;;;;;;;16.55;11.00;;;;;;;19.06;38.41;96670.81;5002166;28;20030;-72
2021/10/19 07:18:47;;;;;;;13.65;9.30;;;;;;;19.18;37.80;96666.53;4985404;28;20028;-72
2021/10/19 07:21:12;;;;;;;12.52;9.02;;;;;;;19.29;37.68;96667.81;4986301;28;20026;-73
2021/10/19 07:23:38;;;;;;;11.77;9.35;;;;;;;19.38;37.51;96673.91;5003276;28;20026;-73
2021/10/19 07:26:03;;;;;;;10.45;9.18;;;;;;;19.48;37.24;96671.66;4973474;28;20029;-72
2021/10/19 07:28:29;;;;;;;10.50;9.00;;;;;;;19.57;36.85;96666.88;5005195;28;20030;-72
2021/10/19 07:30:54;;;;;;;13.32;9.57;;;;;;;19.68;37.13;96670.06;4989316;28;20083;-72
2021/10/19 07:33:20;;;;;;;11.63;9.20;;;;;;;19.76;36.99;96672.59;5007086;28;20042;-72
2021/10/19 07:35:45;;;;;;;12.57;9.10;;;;;;;19.87;36.68;96669.28;5006384;28;20026;-72
2021/10/19 07:38:11;;;;;;;13.35;8.88;;;;;;;19.94;36.37;96663.00;4973006;28;20026;-72
2021/10/19 07:40:37;;;;;;;11.63;8.63;;;;;;;20.04;36.10;96668.91;4988304;28;20099;-72
2021/10/19 07:43:02;;;;;;;11.57;8.43;;;;;;;20.10;35.84;96662.63;5006028;28;20484;-72
2021/10/19 07:45:29;;;;;;;11.05;8.50;;;;;;;20.18;35.87;96666.22;5004281;28;20022;-72
2021/10/19 07:47:56;;;;;;;13.30;8.73;;;;;;;20.25;35.81;96664.31;5005666;28;20032;-72
2021/10/19 07:50:22;;;;;;;11.82;7.90;;;;;;;20.30;35.69;96664.53;4989060;28;20018;-73
2021/10/19 07:52:49;;;;;;;11.48;8.43;;;;;;;20.33;35.66;96666.84;5004828;28;20038;-72
2021/10/19 07:55:15;;;;;;;11.93;8.43;;;;;;;20.32;35.97;96657.00;4989093;28;20018;-73
2021/10/19 07:57:51;;;;;;;10.15;7.75;;;;;;;20.31;35.52;96663.50;5004567;28;20071;-72
2021/10/19 08:00:20;;;;;;;9.90;7.82;;;;;;;20.27;35.56;96664.94;5005570;28;20091;-72
2021/10/19 08:02:46;;;;;;;10.32;7.97;;;;;;;20.21;35.63;96663.06;4988303;28;20516;-72
2021/10/19 08:05:15;;;;;;;9.93;7.57;;;;;;;20.19;35.63;96654.25;5005133;28;20030;-72
2021/10/19 08:07:48;;;;;;;10.93;8.25;;;;;;;20.16;35.87;96650.06;5004939;28;20512;-72
2021/10/19 08:10:18;;;;;;;9.00;6.97;;;;;;;20.17;35.72;96650.94;4988045;28;20033;-72
2021/10/19 08:12:44;;;;;;;9.05;7.53;;;;;;;20.17;35.76;96649.00;5004997;28;20049;-72
2021/10/19 08:15:10;;;;;;;8.93;7.65;;;;;;;20.25;35.97;96647.97;4987797;28;20113;-72
2021/10/19 08:17:35;;;;;;;10.45;7.45;;;;;;;20.36;35.42;96654.69;5005413;28;20508;-73
2021/10/19 08:20:01;;;;;;;9.15;7.15;;;;;;;20.53;35.17;96652.38;4987653;28;20030;-73
2021/10/19 08:22:28;;;;;;;8.02;7.13;;;;;;;20.74;35.01;96650.47;5006248;28;20099;-73
2021/10/19 08:24:54;;;;;;;8.50;6.68;;;;;;;20.94;34.64;96655.09;5004582;28;20060;-72
2021/10/19 08:27:19;;;;;;;8.85;6.90;;;;;;;21.06;34.34;96658.81;5004239;28;20045;-73
2021/10/19 08:29:44;;;;;;;8.75;6.47;;;;;;;21.21;34.31;96646.81;5006304;28;20446;-73
2021/10/19 08:32:10;;;;;;;8.77;6.57;;;;;;;21.33;33.80;96650.53;4987579;28;20412;-73
2021/10/19 08:34:35;;;;;;;9.82;7.03;;;;;;;21.45;33.73;96652.59;4988107;28;20498;-73
2021/10/19 08:37:01;;;;;;;12.65;7.05;;;;;;;21.63;33.33;96646.44;5003786;28;20026;-73
2021/10/19 08:39:26;;;;;;;7.60;6.45;;;;;;;21.74;33.31;96645.75;4988775;28;20075;-73
2021/10/19 08:41:51;;;;;;;9.45;7.30;;;;;;;21.86;32.82;96640.44;4971389;28;20049;-73
2021/10/19 08:44:17;;;;;;;7.28;6.53;;;;;;;22.00;32.56;96640.34;4988399;28;20083;-72
2021/10/19 08:46:42;;;;;;;9.48;6.68;;;;;;;22.07;32.38;96638.41;5005657;28;20022;-72
2021/10/19 08:49:08;;;;;;;8.15;6.20;;;;;;;22.29;32.05;96643.50;4987703;28;20029;-73
2021/10/19 08:51:35;;;;;;;8.68;6.22;;;;;;;22.45;31.88;96638.53;4988166;28;20403;-73
2021/10/19 08:54:01;;;;;;;9.13;6.15;;;;;;;22.62;31.17;96648.94;5003594;28;20025;-72
2021/10/19 08:56:26;;;;;;;8.65;6.38;;;;;;;22.82;31.15;96638.66;4988322;28;20033;-73
2021/10/19 08:58:59;;;;;;;8.07;5.90;;;;;;;22.91;31.03;96641.09;5004754;28;20511;-73
2021/10/19 09:01:31;;;;;;;;;;;;;;;22.76;31.00;96634.09;4988889;28;20093;-73
2021/10/19 09:03:56;;;;;;;6.82;6.10;;;;;;;22.53;31.29;96635.53;5004026;28;19921;-73
2021/10/19 09:06:34;;;;;;;7.32;5.75;;;;;;;22.44;32.21;96628.69;5004070;28;20022;-73
2021/10/19 09:09:24;;;;;;;9.05;6.13;;;;;;;22.52;31.86;96631.09;4988779;28;20102;-73
2021/10/19 09:11:49;;;;;;;8.32;6.15;;;;;;;22.99;31.32;96634.47;5004021;28;20359;-73
2021/10/19 09:14:15;;;;;;;6.45;5.53;;;;;;;23.92;29.93;96626.13;5004260;28;20362;-73
2021/10/19 09:16:41;;;;;;;8.15;5.40;;;;;;;25.05;28.73;96625.59;4970810;28;20400;-72
2021/10/19 09:19:07;;;;;;;7.00;5.68;;;;;;;25.86;27.19;96612.13;5005065;28;20037;-74
2021/10/19 09:21:33;;;;;;;6.30;5.55;;;;;;;26.75;26.01;96612.47;4987491;28;20156;-72
2021/10/19 09:24:17;;;;;;;6.85;5.22;;;;;;;27.65;24.62;96607.88;4987163;28;20037;-72
2021/10/19 09:26:58;;;;;;;7.85;5.07;;;;;;;28.30;23.69;96610.97;5005349;28;20101;-72
2021/10/19 09:29:25;;;;;;;8.35;5.55;;;;;;;28.79;22.55;96607.25;5003216;28;20473;-72
2021/10/19 09:31:52;;;;;;;5.55;4.85;;;;;;;29.24;22.25;96607.78;4987539;28;20034;-72
2021/10/19 09:34:18;;;;;;;6.57;5.22;;;;;;;29.57;21.85;96598.50;4987466;28;20057;-72
2021/10/19 09:36:43;;;;;;;5.63;4.82;;;;;;;29.81;21.65;96601.63;5004263;28;20412;-72
2021/10/19 09:39:09;;;;;;;7.95;4.90;;;;;;;30.03;21.19;96602.50;5004038;28;20026;-73
2021/10/19 09:41:44;;;;;;;6.88;4.72;;;;;;;30.36;20.75;96600.34;5004158;28;20026;-73
2021/10/19 09:44:13;;;;;;;6.40;5.10;;;;;;;28.30;22.39;96594.44;4987871;28;20030;-73
2021/10/19 09:46:39;;;;;;;8.55;4.60;;;;;;;26.46;23.65;96592.50;4985309;28;20882;-73
2021/10/19 09:49:06;;;;;;;6.32;4.22;;;;;;;26.16;25.58;96594.50;4971080;28;20122;-74
2021/10/19 09:51:31;;;;;;;6.20;5.03;;;;;;;27.93;23.66;96583.09;4987216;28;20026;-73
2021/10/19 09:53:56;;;;;;;5.97;4.93;;;;;;;28.84;22.75;96587.94;4986532;28;20026;-73
2021/10/19 09:56:22;;;;;;;9.25;4.95;;;;;;;29.49;21.34;96589.66;4987661;28;20090;-73
2021/10/19 09:58:47;;;;;;;5.78;4.50;;;;;;;30.00;21.09;96586.47;4986382;28;20022;-74
2021/10/19 10:01:13;;;;;;;5.28;4.32;;;;;;;30.20;20.76;96586.50;4987623;28;20399;-74
2021/10/19 10:03:40;;;;;;;6.22;4.07;;;;;;;28.68;21.90;96584.25;4986348;28;20034;-73
2021/10/19 10:06:07;;;;;;;5.28;4.45;;;;;;;27.31;23.74;96583.22;4987288;28;20492;-73
2021/10/19 10:08:33;;;;;;;6.47;4.30;;;;;;;27.83;23.07;96577.47;5002742;28;20080;-74
2021/10/19 10:10:58;;;;;;;8.07;4.80;;;;;;;27.16;24.23;96578.38;5002736;28;20645;-73
2021/10/19 10:13:24;;;;;;;5.55;4.60;;;;;;;28.09;23.34;96574.97;5002957;28;20042;-73
2021/10/19 10:15:50;;;;;;;5.65;4.25;;;;;;;28.98;21.93;96569.00;4986003;28;20029;-74
2021/10/19 10:18:15;;;;;;;6.15;4.20;;;;;;;29.58;21.38;96567.84;5004907;28;20026;-74
2021/10/19 10:20:47;;;;;;;4.93;3.80;;;;;;;30.09;21.23;96554.38;4985896;28;20435;-74
2021/10/19 10:23:18;;;;;;;6.45;4.40;;;;;;;30.43;20.41;96558.56;5003778;28;20030;-74
2021/10/19 10:25:44;;;;;;;6.30;4.40;;;;;;;30.62;19.95;96555.19;5003744;28;20041;-74
2021/10/19 10:28:11;;;;;;;4.88;4.00;;;;;;;30.23;20.48;96547.22;4986497;28;20030;-74
2021/10/19 10:30:36;;;;;;;6.88;4.13;;;;;;;29.40;20.94;96554.53;5002911;28;20037;-73
2021/10/19 10:33:06;;;;;;;6.15;4.35;;;;;;;29.87;20.66;96552.72;4985892;28;20075;-73
2021/10/19 10:35:32;;;;;;;5.38;4.25;;;;;;;30.26;20.18;96547.78;4970736;28;20032;-74
2021/10/19 10:37:57;;;;;;;4.70;4.20;;;;;;;30.40;20.09;96546.13;5001681;28;20022;-73
2021/10/19 10:40:33;;;;;;;5.28;4.18;;;;;;;30.50;20.11;96541.66;5003344;28;20037;-74
2021/10/19 10:43:00;;;;;;;4.32;3.70;;;;;;;30.58;19.65;96536.38;5002036;28;20455;-74
2021/10/19 10:45:33;;;;;;;4.60;3.95;;;;;;;30.62;19.18;96533.06;4970403;28;20029;-74
2021/10/19 10:48:03;;;;;;;7.05;4.05;;;;;;;30.49;19.68;96538.06;4986335;28;20120;-74
2021/10/19 10:50:29;;;;;;;5.28;3.88;;;;;;;30.39;19.11;96530.59;4986317;28;20053;-74
2021/10/19 10:53:06;;;;;;;5.03;4.30;;;;;;;30.38;19.21;96530.88;4986490;28;20090;-74
2021/10/19 10:55:43;;;;;;;6.90;3.72;;;;;;;30.25;19.85;96535.03;4969282;28;20589;-74
2021/10/19 10:58:08;;;;;;;4.82;4.00;;;;;;;30.08;20.13;96525.91;5002413;28;20049;-73
2021/10/19 11:00:34;;;;;;;5.75;3.78;;;;;;;29.85;20.47;96527.28;5003538;28;20138;-74
2021/10/19 11:03:14;;;;;;;6.65;4.18;;;;;;;29.62;20.58;96523.94;4985733;28;20228;-74
2021/10/19 11:05:53;;;;;;;7.75;4.55;;;;;;;29.15;20.73;96521.00;4986707;28;20484;-73
2021/10/19 11:08:28;;;;;;;4.88;4.07;;;;;;;28.78;21.36;96524.72;4985378;28;20051;-74
2021/10/19 11:11:07;;;;;;;7.22;4.05;;;;;;;27.96;22.12;96519.16;4987116;28;20027;-73
2021/10/19 11:13:43;;;;;;;4.45;3.88;;;;;;;26.69;23.94;96514.44;5001894;28;20091;-74
2021/10/19 11:16:08;;;;;;;5.30;3.83;;;;;;;25.66;25.07;96506.25;4986451;28;20109;-73
2021/10/19 11:18:34;;;;;;;5.72;3.88;;;;;;;24.81;26.58;96504.91;4986234;28;20565;-73
2021/10/19 11:21:00;;;;;;;6.53;3.60;;;;;;;24.14;27.74;96520.63;5001463;28;20423;-73